Terminal Aerodrome Forecast
Issued by NWS Brownsville, TX

Home | Current Version | Previous Version | Text Only | Print | Product List | Glossary On
Versions: 1 2 3 4 5 6 7 8 9 10 11 12 13 14 15 16 17 18 19 20 21 22 23 24 25 26 27 28 29
000
FTUS44 KBRO 202200 AAB
TAFMFE
TAF AMD
KMFE 202234Z 2023/2118 04010KT P6SM VCSH SCT040 BKN070
     FM210100 05006KT P6SM FEW030 SCT090=

USA.gov is the U.S. government's official web portal to all federal, state and local government web resources and services.